createdAt,value
2023-04-27T00:01:19.032Z,11.30
2023-04-27T00:03:45.920Z,11.30
2023-04-27T00:06:12.900Z,11.30
2023-04-27T00:08:39.563Z,11.30
2023-04-27T00:11:06.758Z,11.20
2023-04-27T00:13:33.561Z,11.20
2023-04-27T00:16:03.860Z,11.20
2023-04-27T00:18:31.255Z,11.20
2023-04-27T00:20:58.505Z,11.20
2023-04-27T00:23:25.214Z,11.20
2023-04-27T00:25:51.899Z,11.10
2023-04-27T00:28:18.540Z,11.00
2023-04-27T00:30:45.298Z,11.00
2023-04-27T00:33:12.002Z,11.00
2023-04-27T00:35:38.611Z,11.00
2023-04-27T00:38:05.507Z,11.00
2023-04-27T00:40:32.266Z,11.00
2023-04-27T00:42:58.944Z,11.00
2023-04-27T00:45:25.585Z,11.00
2023-04-27T00:47:52.395Z,11.00
2023-04-27T00:50:31.796Z,11.10
2023-04-27T00:52:58.833Z,11.00
2023-04-27T00:55:25.592Z,11.00
2023-04-27T00:57:52.226Z,11.00
2023-04-27T01:00:19.056Z,11.10
2023-04-27T01:02:46.151Z,11.00
2023-04-27T01:05:13.599Z,11.00
2023-04-27T01:07:40.961Z,10.90
2023-04-27T01:10:08.401Z,11.00
2023-04-27T01:12:35.294Z,11.00
2023-04-27T01:15:01.998Z,11.00
2023-04-27T01:17:28.679Z,10.90
2023-04-27T01:19:56.819Z,11.00
2023-04-27T01:22:23.507Z,11.00
2023-04-27T01:24:50.165Z,11.00
2023-04-27T01:27:16.747Z,11.00
2023-04-27T01:29:44.513Z,11.00
2023-04-27T01:32:12.421Z,10.90
2023-04-27T01:34:39.081Z,10.90
2023-04-27T01:37:07.944Z,10.90
2023-04-27T01:39:36.925Z,10.90
2023-04-27T01:42:03.729Z,10.80
2023-04-27T01:44:30.354Z,10.80
2023-04-27T01:46:57.076Z,10.80
2023-04-27T01:49:23.836Z,10.70
2023-04-27T01:51:51.158Z,10.80
2023-04-27T01:54:17.728Z,10.70
2023-04-27T01:56:44.365Z,10.80
2023-04-27T01:59:11.106Z,10.80
2023-04-27T02:01:37.920Z,10.80
2023-04-27T02:04:05.023Z,10.70
2023-04-27T02:06:31.978Z,10.80
2023-04-27T02:08:59.055Z,10.80
2023-04-27T02:11:26.665Z,10.70
2023-04-27T02:13:53.320Z,10.80
2023-04-27T02:16:20.003Z,10.70
2023-04-27T02:18:46.893Z,10.70
2023-04-27T02:21:13.514Z,10.60
2023-04-27T02:23:40.313Z,10.60
2023-04-27T02:26:07.020Z,10.50
2023-04-27T02:28:33.759Z,10.50
2023-04-27T02:31:01.365Z,10.50
2023-04-27T02:33:28.063Z,10.50
2023-04-27T02:35:54.699Z,10.40
2023-04-27T02:38:21.432Z,10.40
2023-04-27T02:40:53.939Z,10.40
2023-04-27T02:43:21.087Z,10.40
2023-04-27T02:45:47.748Z,10.30
2023-04-27T02:48:15.031Z,10.20
2023-04-27T02:50:42.560Z,10.20
2023-04-27T02:53:09.457Z,10.20
2023-04-27T02:55:36.110Z,10.20
2023-04-27T02:58:02.923Z,10.20
2023-04-27T03:00:29.989Z,10.20
2023-04-27T03:02:56.906Z,10.20
2023-04-27T03:05:26.550Z,10.10
2023-04-27T03:07:53.143Z,10.10
2023-04-27T03:10:19.857Z,10.10
2023-04-27T03:12:46.448Z,10.10
2023-04-27T03:15:13.019Z,10.10
2023-04-27T03:17:39.803Z,10.00
2023-04-27T03:20:09.776Z,10.00
2023-04-27T03:22:37.086Z,10.10
2023-04-27T03:25:03.989Z,10.10
2023-04-27T03:27:30.699Z,10.20
2023-04-27T03:29:57.337Z,10.20
2023-04-27T03:32:24.027Z,10.20
2023-04-27T03:34:50.650Z,10.30
2023-04-27T03:37:17.366Z,10.30
2023-04-27T03:39:45.023Z,10.30
2023-04-27T03:42:11.611Z,10.30
2023-04-27T03:44:41.184Z,10.30
2023-04-27T03:47:12.141Z,10.40
2023-04-27T03:49:38.818Z,10.30
2023-04-27T03:52:07.672Z,10.30
2023-04-27T03:54:34.332Z,10.30
2023-04-27T03:57:02.577Z,10.20
2023-04-27T03:59:30.211Z,10.20
2023-04-27T04:02:00.798Z,10.20
2023-04-27T04:04:28.142Z,10.20
2023-04-27T04:06:54.833Z,10.20
2023-04-27T04:09:23.693Z,10.20
2023-04-27T04:11:52.470Z,10.10
2023-04-27T04:14:19.052Z,10.10
2023-04-27T04:16:46.612Z,10.10
2023-04-27T04:19:13.772Z,10.10
2023-04-27T04:21:40.609Z,10.00
2023-04-27T04:24:10.384Z,10.00
2023-04-27T04:26:38.672Z,9.90
2023-04-27T04:29:09.614Z,9.90
2023-04-27T04:31:38.057Z,9.80
2023-04-27T04:34:12.203Z,9.80
2023-04-27T04:36:38.774Z,9.70
2023-04-27T04:39:06.849Z,9.60
2023-04-27T04:41:33.573Z,9.60
2023-04-27T04:44:00.624Z,9.60
2023-04-27T04:46:27.239Z,9.50
2023-04-27T04:48:54.814Z,9.40
2023-04-27T04:51:21.633Z,9.30
2023-04-27T04:53:48.265Z,9.20
2023-04-27T04:56:14.982Z,9.10
2023-04-27T04:58:41.804Z,9.10
2023-04-27T05:01:08.586Z,9.10
2023-04-27T05:03:42.924Z,9.00
2023-04-27T05:06:09.807Z,9.10
2023-04-27T05:08:39.932Z,9.00
2023-04-27T05:11:09.513Z,9.10
2023-04-27T05:13:38.080Z,9.10
2023-04-27T05:16:10.366Z,9.20
2023-04-27T05:18:40.421Z,9.20
2023-04-27T05:21:15.065Z,9.30
2023-04-27T05:23:41.627Z,9.30
2023-04-27T05:26:12.778Z,9.40
2023-04-27T05:28:39.387Z,9.50
2023-04-27T05:31:06.553Z,9.50
2023-04-27T05:33:33.217Z,9.60
2023-04-27T05:36:00.126Z,9.50
2023-04-27T05:38:26.764Z,9.60
2023-04-27T05:40:57.476Z,9.60
2023-04-27T05:43:24.942Z,9.70
2023-04-27T05:45:52.350Z,9.70
2023-04-27T05:48:19.772Z,9.70
2023-04-27T05:50:46.393Z,9.80
2023-04-27T05:53:13.025Z,9.80
2023-04-27T05:55:39.649Z,9.80
2023-04-27T05:58:09.448Z,9.80
2023-04-27T06:00:39.467Z,9.80
2023-04-27T06:03:08.978Z,9.90
2023-04-27T06:05:40.288Z,10.00
2023-04-27T06:08:09.448Z,10.00
2023-04-27T06:10:42.442Z,10.00
2023-04-27T06:13:09.113Z,10.10
2023-04-27T06:15:38.748Z,10.10
2023-04-27T06:18:08.314Z,10.10
2023-04-27T06:20:37.449Z,10.20
2023-04-27T06:23:06.436Z,10.20
2023-04-27T06:25:33.251Z,10.30
2023-04-27T06:27:59.941Z,10.30
2023-04-27T06:30:26.715Z,10.40
2023-04-27T06:32:53.868Z,10.50
2023-04-27T06:35:21.458Z,10.60
2023-04-27T06:37:48.030Z,10.60
2023-04-27T06:40:14.863Z,10.60
2023-04-27T06:42:41.502Z,11.20
2023-04-27T06:45:08.403Z,11.30
2023-04-27T06:47:37.427Z,11.40
2023-04-27T06:50:04.424Z,11.40
2023-04-27T06:52:33.420Z,11.40
2023-04-27T06:55:00.088Z,11.40
2023-04-27T06:57:26.849Z,11.50
2023-04-27T06:59:53.581Z,11.40
2023-04-27T07:02:20.435Z,11.50
2023-04-27T07:04:47.740Z,11.50
2023-04-27T07:07:14.445Z,11.50
2023-04-27T07:09:41.092Z,11.50
2023-04-27T07:12:07.910Z,11.60
2023-04-27T07:14:34.772Z,11.60
2023-04-27T07:17:01.683Z,11.70
2023-04-27T07:19:28.382Z,11.80
2023-04-27T07:21:54.964Z,11.80
2023-04-27T07:24:21.636Z,11.90
2023-04-27T07:26:48.246Z,11.90
2023-04-27T07:29:26.438Z,12.00
2023-04-27T07:31:55.486Z,12.10
2023-04-27T07:34:22.559Z,12.10
2023-04-27T07:36:49.269Z,12.20
2023-04-27T07:39:16.047Z,12.30
2023-04-27T07:41:42.855Z,12.30
2023-04-27T07:44:09.558Z,12.40
2023-04-27T07:46:36.642Z,12.50
2023-04-27T07:49:04.004Z,12.60
2023-04-27T07:51:30.758Z,12.60
2023-04-27T07:53:57.471Z,12.60
2023-04-27T07:56:24.109Z,12.70
2023-04-27T07:58:50.798Z,12.70
2023-04-27T08:01:19.522Z,12.80
2023-04-27T08:03:47.648Z,12.90
2023-04-27T08:06:15.032Z,13.00
2023-04-27T08:08:42.497Z,13.00
2023-04-27T08:11:12.976Z,13.10
2023-04-27T08:13:39.620Z,13.20
2023-04-27T08:16:09.067Z,13.20
2023-04-27T08:18:38.963Z,13.20
2023-04-27T08:21:08.470Z,13.30
2023-04-27T08:23:37.049Z,13.30
2023-04-27T08:26:03.809Z,13.40
2023-04-27T08:28:30.790Z,13.40
2023-04-27T08:30:57.413Z,13.50
2023-04-27T08:33:24.347Z,13.60
2023-04-27T08:35:53.395Z,13.70
2023-04-27T08:38:19.989Z,13.70
2023-04-27T08:40:46.658Z,13.80
2023-04-27T08:43:13.338Z,13.80
2023-04-27T08:45:49.501Z,13.90
2023-04-27T08:48:16.439Z,14.00
2023-04-27T08:50:44.957Z,14.10
2023-04-27T08:53:19.151Z,14.20
2023-04-27T08:55:45.876Z,14.30
2023-04-27T08:58:12.583Z,14.40
2023-04-27T09:00:44.025Z,14.40
2023-04-27T09:03:24.436Z,14.60
2023-04-27T09:06:03.706Z,14.60
2023-04-27T09:08:51.012Z,14.60
2023-04-27T09:11:31.358Z,14.80
2023-04-27T09:14:00.302Z,14.80
2023-04-27T09:16:29.116Z,15.00
2023-04-27T09:18:57.198Z,14.90
2023-04-27T09:21:28.733Z,15.00
2023-04-27T09:23:56.374Z,15.10
2023-04-27T09:26:27.943Z,15.20
2023-04-27T09:28:59.338Z,15.20
2023-04-27T09:31:36.116Z,15.30
2023-04-27T09:34:03.703Z,15.20
2023-04-27T09:36:32.585Z,15.20
2023-04-27T09:39:04.594Z,15.20
2023-04-27T09:41:33.116Z,15.20
2023-04-27T09:44:00.819Z,15.20
2023-04-27T09:46:29.292Z,15.30
2023-04-27T09:48:57.509Z,15.40
2023-04-27T09:51:24.176Z,15.50
2023-04-27T09:53:54.077Z,15.50
2023-04-27T09:56:48.765Z,15.70
2023-04-27T09:59:45.269Z,15.70
2023-04-27T10:02:24.650Z,15.70
2023-04-27T10:05:35.938Z,15.80
2023-04-27T10:08:05.087Z,15.80
2023-04-27T10:10:42.778Z,15.80
2023-04-27T10:13:20.035Z,15.90
2023-04-27T10:15:46.635Z,16.00
2023-04-27T10:18:13.510Z,16.00
2023-04-27T10:20:40.814Z,16.20
2023-04-27T10:23:07.766Z,16.20
2023-04-27T10:25:40.365Z,16.30
2023-04-27T10:28:10.395Z,16.30
2023-04-27T10:30:39.281Z,16.30
2023-04-27T10:33:10.855Z,16.30
2023-04-27T10:35:40.150Z,16.40
2023-04-27T10:38:21.767Z,16.50
2023-04-27T10:40:57.660Z,16.50
2023-04-27T10:43:27.134Z,16.50
2023-04-27T10:45:54.325Z,16.60
2023-04-27T10:48:21.012Z,16.60
2023-04-27T10:50:50.304Z,16.60
2023-04-27T10:53:17.409Z,16.60
2023-04-27T10:55:44.115Z,16.60
2023-04-27T10:58:10.790Z,16.60
2023-04-27T11:00:44.169Z,16.70
2023-04-27T11:03:20.847Z,16.70
2023-04-27T11:05:49.324Z,16.90
2023-04-27T11:08:19.444Z,16.90
2023-04-27T11:10:50.042Z,16.90
2023-04-27T11:13:22.373Z,16.90
2023-04-27T11:15:51.040Z,17.00
2023-04-27T11:18:19.428Z,17.00
2023-04-27T11:20:49.597Z,17.00
2023-04-27T11:23:28.927Z,17.00
2023-04-27T11:25:56.644Z,17.00
2023-04-27T11:28:24.374Z,17.00
2023-04-27T11:30:59.282Z,17.20
2023-04-27T11:33:27.377Z,17.20
2023-04-27T11:35:54.387Z,17.30
2023-04-27T11:38:21.900Z,17.40
2023-04-27T11:41:00.938Z,17.40
2023-04-27T11:43:27.990Z,17.40
2023-04-27T11:45:56.113Z,17.40
2023-04-27T11:48:27.512Z,17.50
2023-04-27T11:50:56.840Z,17.60
2023-04-27T11:53:38.193Z,17.60
2023-04-27T11:56:07.795Z,17.70
2023-04-27T11:58:39.108Z,17.70
2023-04-27T12:01:06.714Z,17.80
2023-04-27T12:03:33.808Z,17.80
2023-04-27T12:06:16.137Z,17.90
2023-04-27T12:08:47.515Z,17.90
2023-04-27T12:11:14.441Z,18.00
2023-04-27T12:13:41.263Z,17.90
2023-04-27T12:16:07.889Z,17.90
2023-04-27T12:18:34.605Z,17.90
2023-04-27T12:21:03.287Z,18.00
2023-04-27T12:23:30.850Z,18.00
2023-04-27T12:25:57.580Z,18.00
2023-04-27T12:28:24.213Z,18.10
2023-04-27T12:30:51.185Z,18.10
2023-04-27T12:33:17.982Z,18.20
2023-04-27T12:35:44.612Z,18.20
2023-04-27T12:38:11.293Z,18.40
2023-04-27T12:40:38.047Z,18.40
2023-04-27T12:43:04.903Z,18.50
2023-04-27T12:45:31.673Z,18.50
2023-04-27T12:48:03.815Z,18.60
2023-04-27T12:50:32.319Z,18.60
2023-04-27T12:52:59.751Z,18.70
2023-04-27T12:55:33.556Z,18.70
2023-04-27T12:58:02.319Z,18.70
2023-04-27T13:00:29.740Z,18.70
2023-04-27T13:02:57.394Z,18.80
2023-04-27T13:05:24.467Z,18.80
2023-04-27T13:07:51.147Z,18.80
2023-04-27T13:10:17.801Z,18.70
2023-04-27T13:12:44.514Z,18.70
2023-04-27T13:15:11.492Z,18.70
2023-04-27T13:17:38.229Z,18.70
2023-04-27T13:20:06.449Z,18.70
2023-04-27T13:22:33.153Z,18.80
2023-04-27T13:24:59.842Z,18.80
2023-04-27T13:27:28.434Z,18.70
2023-04-27T13:29:55.922Z,18.80
2023-04-27T13:32:22.833Z,18.90
2023-04-27T13:34:49.688Z,19.10
2023-04-27T13:37:17.065Z,19.00
2023-04-27T13:39:43.766Z,19.00
2023-04-27T13:42:10.394Z,19.00
2023-04-27T13:44:37.075Z,19.20
2023-04-27T13:47:03.835Z,19.20
2023-04-27T13:49:30.810Z,19.20
2023-04-27T13:51:58.371Z,19.20
2023-04-27T13:54:25.050Z,19.40
2023-04-27T13:56:51.677Z,19.40
2023-04-27T13:59:18.297Z,19.40
2023-04-27T14:01:44.939Z,19.40
2023-04-27T14:04:12.864Z,19.40
2023-04-27T14:06:39.711Z,19.50
2023-04-27T14:09:09.340Z,19.40
2023-04-27T14:11:52.511Z,19.40
2023-04-27T14:14:23.068Z,19.50
2023-04-27T14:16:51.227Z,19.50
2023-04-27T14:19:20.171Z,19.40
2023-04-27T14:21:49.034Z,19.40
2023-04-27T14:24:16.093Z,19.40
2023-04-27T14:26:47.420Z,19.50
2023-04-27T14:29:14.685Z,19.60
2023-04-27T14:31:41.648Z,19.60
2023-04-27T14:34:08.685Z,19.60
2023-04-27T14:36:36.144Z,19.60
2023-04-27T14:39:04.371Z,19.70
2023-04-27T14:41:31.076Z,19.60
2023-04-27T14:43:57.812Z,19.60
2023-04-27T14:46:24.450Z,19.40
2023-04-27T14:48:51.252Z,19.40
2023-04-27T14:51:18.011Z,19.40
2023-04-27T14:53:44.632Z,19.50
2023-04-27T14:56:11.911Z,19.50
2023-04-27T14:58:38.874Z,19.50
2023-04-27T15:01:08.756Z,19.60
2023-04-27T15:03:38.926Z,19.50
2023-04-27T15:06:08.582Z,19.50
2023-04-27T15:08:36.351Z,19.60
2023-04-27T15:11:04.343Z,19.60
2023-04-27T15:13:31.054Z,19.60
2023-04-27T15:15:59.120Z,19.60
2023-04-27T15:18:25.915Z,19.70
2023-04-27T15:20:53.925Z,19.70
2023-04-27T15:23:21.675Z,19.70
2023-04-27T15:25:49.072Z,19.70
2023-04-27T15:28:17.527Z,19.70
2023-04-27T15:30:45.057Z,19.80
2023-04-27T15:33:12.904Z,19.70
2023-04-27T15:35:40.401Z,19.70
2023-04-27T15:38:09.280Z,19.80
2023-04-27T15:40:36.281Z,19.70
2023-04-27T15:43:02.995Z,19.80
2023-04-27T15:45:30.556Z,19.80
2023-04-27T15:47:57.721Z,19.80
2023-04-27T15:50:25.257Z,19.80
2023-04-27T15:52:52.706Z,19.80
2023-04-27T15:55:19.481Z,19.80
2023-04-27T15:57:46.139Z,19.80
2023-04-27T16:00:15.201Z,19.80
2023-04-27T16:02:42.113Z,19.80
2023-04-27T16:05:09.776Z,19.80
2023-04-27T16:07:39.291Z,19.90
2023-04-27T16:10:06.848Z,20.00
2023-04-27T16:12:33.623Z,19.90
2023-04-27T16:15:00.859Z,19.80
2023-04-27T16:17:31.226Z,19.90
2023-04-27T16:19:58.133Z,19.90
2023-04-27T16:22:24.917Z,19.90
2023-04-27T16:24:51.525Z,20.00
2023-04-27T16:27:20.094Z,20.00
2023-04-27T16:29:47.292Z,20.00
2023-04-27T16:32:14.112Z,20.00
2023-04-27T16:34:41.446Z,20.00
2023-04-27T16:37:08.077Z,20.00
2023-04-27T16:39:34.926Z,19.90
2023-04-27T16:42:01.541Z,19.90
2023-04-27T16:44:28.344Z,19.70
2023-04-27T16:46:54.968Z,19.70
2023-04-27T16:49:21.578Z,19.80
2023-04-27T16:51:48.196Z,19.80
2023-04-27T16:54:16.452Z,19.80
2023-04-27T16:56:43.166Z,19.80
2023-04-27T16:59:12.567Z,19.80
2023-04-27T17:01:39.956Z,19.80
2023-04-27T17:04:06.693Z,19.80
2023-04-27T17:06:34.647Z,19.90
2023-04-27T17:09:01.484Z,19.90
2023-04-27T17:11:28.259Z,19.80
2023-04-27T17:13:54.984Z,19.80
2023-04-27T17:16:22.038Z,19.80
2023-04-27T17:18:48.897Z,19.70
2023-04-27T17:21:16.751Z,19.80
2023-04-27T17:23:46.390Z,19.80
2023-04-27T17:26:15.774Z,19.70
2023-04-27T17:28:42.373Z,19.60
2023-04-27T17:31:09.022Z,19.60
2023-04-27T17:33:35.944Z,19.50
2023-04-27T17:36:02.536Z,19.50
2023-04-27T17:38:29.205Z,19.50
2023-04-27T17:40:55.829Z,19.50
2023-04-27T17:43:22.419Z,19.50
2023-04-27T17:45:49.123Z,19.50
2023-04-27T17:48:16.187Z,19.40
2023-04-27T17:50:43.292Z,19.40
2023-04-27T17:53:10.750Z,19.30
2023-04-27T17:55:40.697Z,19.20
2023-04-27T17:58:09.473Z,19.10
2023-04-27T18:00:36.444Z,19.10
2023-04-27T18:03:03.211Z,19.00
2023-04-27T18:05:29.888Z,19.00
2023-04-27T18:07:56.651Z,18.80
2023-04-27T18:10:23.327Z,18.70
2023-04-27T18:12:49.944Z,18.70
2023-04-27T18:15:16.535Z,18.70
2023-04-27T18:17:43.207Z,18.70
2023-04-27T18:20:11.035Z,18.60
2023-04-27T18:22:40.517Z,18.50
2023-04-27T18:25:08.836Z,18.50
2023-04-27T18:27:37.412Z,18.40
2023-04-27T18:30:08.353Z,18.20
2023-04-27T18:32:35.822Z,18.00
2023-04-27T18:35:02.886Z,17.80
2023-04-27T18:37:29.845Z,17.80
2023-04-27T18:39:56.481Z,17.80
2023-04-27T18:42:23.746Z,17.70
2023-04-27T18:44:54.617Z,17.60
2023-04-27T18:47:21.398Z,17.40
2023-04-27T18:49:48.046Z,17.20
2023-04-27T18:52:14.737Z,17.00
2023-04-27T18:54:42.060Z,16.90
2023-04-27T18:57:08.848Z,16.90
2023-04-27T18:59:39.173Z,16.80
2023-04-27T19:02:10.389Z,16.80
2023-04-27T19:04:37.313Z,16.80
2023-04-27T19:07:04.403Z,16.70
2023-04-27T19:09:31.129Z,16.70
2023-04-27T19:12:02.808Z,16.60
2023-04-27T19:14:31.276Z,16.60
2023-04-27T19:16:58.015Z,16.50
2023-04-27T19:19:25.746Z,16.50
2023-04-27T19:21:52.483Z,16.50
2023-04-27T19:24:19.167Z,16.50
2023-04-27T19:26:48.262Z,16.50
2023-04-27T19:29:15.381Z,16.50
2023-04-27T19:31:42.636Z,16.50
2023-04-27T19:34:09.357Z,16.40
2023-04-27T19:36:36.194Z,16.40
2023-04-27T19:39:03.513Z,16.30
2023-04-27T19:41:30.253Z,16.20
2023-04-27T19:43:56.872Z,16.20
2023-04-27T19:46:23.586Z,16.30
2023-04-27T19:48:52.592Z,16.30
2023-04-27T19:51:19.194Z,16.20
2023-04-27T19:53:45.854Z,16.10
2023-04-27T19:56:12.610Z,16.10
2023-04-27T19:58:39.328Z,16.00
2023-04-27T20:01:06.209Z,16.00
2023-04-27T20:03:33.085Z,16.00
2023-04-27T20:05:59.978Z,16.10
2023-04-27T20:08:27.030Z,16.00
2023-04-27T20:10:53.998Z,16.00
2023-04-27T20:13:20.689Z,15.90
2023-04-27T20:15:47.364Z,15.90
2023-04-27T20:18:14.051Z,15.90
2023-04-27T20:20:41.927Z,15.90
2023-04-27T20:23:08.668Z,15.90
2023-04-27T20:25:35.622Z,15.90
2023-04-27T20:28:02.324Z,15.80
2023-04-27T20:30:28.999Z,15.80
2023-04-27T20:32:56.429Z,15.70
2023-04-27T20:35:24.034Z,15.70
2023-04-27T20:37:51.930Z,15.70
2023-04-27T20:40:18.940Z,15.70
2023-04-27T20:42:46.064Z,15.70
2023-04-27T20:45:13.226Z,15.60
2023-04-27T20:47:40.270Z,15.60
2023-04-27T20:50:10.113Z,15.60
2023-04-27T20:52:37.224Z,15.60
2023-04-27T20:55:05.524Z,15.50
2023-04-27T20:57:32.433Z,15.40
2023-04-27T20:59:59.029Z,15.40
2023-04-27T21:02:25.910Z,15.40
2023-04-27T21:04:53.004Z,15.40
2023-04-27T21:07:19.748Z,15.40
2023-04-27T21:09:46.367Z,15.30
2023-04-27T21:12:14.705Z,15.30
2023-04-27T21:14:41.376Z,15.20
2023-04-27T21:17:08.285Z,15.10
2023-04-27T21:19:37.780Z,15.10
2023-04-27T21:22:04.414Z,15.10
2023-04-27T21:24:31.025Z,15.00
2023-04-27T21:26:57.959Z,14.90
2023-04-27T21:29:24.651Z,14.80
2023-04-27T21:31:51.255Z,14.80
2023-04-27T21:34:18.079Z,14.80
2023-04-27T21:36:44.820Z,14.80
2023-04-27T21:39:11.900Z,14.70
2023-04-27T21:41:39.720Z,14.60
2023-04-27T21:44:10.103Z,14.60
2023-04-27T21:46:40.084Z,14.60
2023-04-27T21:49:09.576Z,14.50
2023-04-27T21:51:36.545Z,14.50
2023-04-27T21:54:03.125Z,14.50
2023-04-27T21:56:29.816Z,14.50
2023-04-27T21:58:56.417Z,14.50
2023-04-27T22:01:23.507Z,14.50
2023-04-27T22:03:50.683Z,14.50
2023-04-27T22:06:17.438Z,14.40
2023-04-27T22:08:44.260Z,14.40
2023-04-27T22:11:10.934Z,14.30
2023-04-27T22:13:37.838Z,14.30
2023-04-27T22:16:04.727Z,14.20
2023-04-27T22:18:31.424Z,14.20
2023-04-27T22:20:58.261Z,14.20
2023-04-27T22:23:25.247Z,14.10
2023-04-27T22:25:51.874Z,14.20
2023-04-27T22:28:18.508Z,14.20
2023-04-27T22:30:45.337Z,14.20
2023-04-27T22:33:12.138Z,14.20
2023-04-27T22:35:38.877Z,14.10
2023-04-27T22:38:05.911Z,14.20
2023-04-27T22:40:32.651Z,14.10
2023-04-27T22:42:59.281Z,14.10
2023-04-27T22:45:25.985Z,14.10
2023-04-27T22:47:52.732Z,14.20
2023-04-27T22:50:19.546Z,14.10
2023-04-27T22:52:46.212Z,14.10
2023-04-27T22:55:13.079Z,14.10
2023-04-27T22:57:40.991Z,14.10
2023-04-27T23:00:12.044Z,14.00
2023-04-27T23:02:40.306Z,13.90
2023-04-27T23:05:07.647Z,13.80
2023-04-27T23:07:34.967Z,13.80
2023-04-27T23:10:02.936Z,13.80
2023-04-27T23:12:30.228Z,13.70
2023-04-27T23:14:57.597Z,13.70
2023-04-27T23:17:30.577Z,13.70
2023-04-27T23:20:01.941Z,13.70
2023-04-27T23:22:28.743Z,13.60
2023-04-27T23:24:55.465Z,13.60
2023-04-27T23:27:23.546Z,13.60
2023-04-27T23:29:50.322Z,13.50
2023-04-27T23:32:17.055Z,13.60
2023-04-27T23:34:43.652Z,13.50
2023-04-27T23:37:10.496Z,13.50
2023-04-27T23:39:37.104Z,13.50
2023-04-27T23:42:03.805Z,13.50
2023-04-27T23:44:30.492Z,13.40
2023-04-27T23:46:57.351Z,13.40
2023-04-27T23:49:24.009Z,13.50
2023-04-27T23:51:52.464Z,13.50
2023-04-27T23:54:19.308Z,13.50
2023-04-27T23:56:46.062Z,13.50
2023-04-27T23:59:14.860Z,13.40
